Terminal Aerodrome Forecast
Issued by NWS

Home | Current Version | Previous Version | Text Only | Print | Product List | Glossary On
Versions: 1 2 3 4 5 6 7 8 9 10 11 12 13 14
000
FTUS46 KLOX 310500
TAFWJF
TAF
KWJF 310529Z 3106/0106 26010KT P6SM SKC
     FM311500 25015KT P6SM SKC
     FM312100 25022G32KT P6SM SKC
     FM010400 25015KT P6SM SKC=

USA.gov is the U.S. government's official web portal to all federal, state and local government web resources and services.